John Day, OR (97845)

4:43 PM PDT on August 23, 2017 (GMT -0700)
Grant County Airport south, Oregon | | Change Station
Active Advisory: Fire Weather Warning

Elev 3696 ft 44.40 °N, 118.97 °W | Updated 3 seconds ago

Haze
Haze
84.4 °F
Feels Like 82 °F
N
9.4
Wind Variable Wind from WNW

Today
High -- | Low -- °F
--% Chance of Precip.
Yesterday
High -- | Low -- °F
Precip. -- in
Pressure 30.00 in
Visibility 5.0 miles
Clouds Clear
Heat Index 82 °F
Dew Point 48 °F
Humidity 28%
Rainfall 0.00 in
Snow Depth Not available.
6:08 AM 7:47 PM
Waxing Crescent, 6% visible
METAR KGCD 232335Z AUTO 00000KT 5SM HZ CLR 30/07 A3000 RMK AO2 T03000070
Pressure 30.00 in
Visibility 5.0 miles
Clouds Clear
Heat Index 82 °F
Dew Point 48 °F
Humidity 28%
Rainfall 0.00 in
Snow Depth Not available.
6:08 AM 7:47 PM
Waxing Crescent, 6% visible
METAR KGCD 232335Z AUTO 00000KT 5SM HZ CLR 30/07 A3000 RMK AO2 T03000070

Get Your Daily Forecast Email!

Thanks for signing up!

Be on the lookout for a verification email in your inbox.

You'll start receiving severe weather alerts in your inbox..

×

10-Day Weather Forecast

Almanac

Astronomy

Aug. 23, 2017 Rise Set
Actual Time
Civil Twilight
Nautical Twilight
Astronomical Twilight
Moon
Length of Visible Light
Length of Day
Tomorrow will be .
, % of the Moon is Illuminated

Today's Extremes

State Highs State Lows

Community

WunderPhotos

Category 6

Welcome to Category 6. This is the collective home for Weather Underground's featured writeups by Dr. Jeff Masters (right), Bob Henson (left), Chris Burt, and other regular contributors.

Nearby

Air Quality

  Air Quality AQ Index Pollutant
Not available.

Snow Depth

Station Depth Elevation

Earthquake Activity

City Distance Mag. Time & Date
Minimum magnitude displayed is 2.5.

Coastal Water Temperatures

Place Temperature

Stations

Nearby Weather Stations

Station Location Temp. Windchill Dew Point Humidity Wind Precip. Elev Updated Type
                   

Watches & Warnings

Fire Weather Warning
Issued: 1:27 PM PDT Aug. 23, 2017 – National Weather Service

... Red flag warning remains in effect until 10 PM PDT this
evening for abundant lightning and gusty outflow winds for fire
weather zones 642, 644, and Oregon zone 645...

* affected area... in Oregon... fire weather zones 642, 644 and
645.

* Timing... this afternoon and evening.

* Lightning activity level... 3.

* Precipitation... one quarter to one third of an inch.

* Impacts... any fires that develop will likely spread rapidly.
Outdoor burning is not recommended.

Precautionary/preparedness actions...

A red flag warning means that critical fire weather conditions
are either occurring now... .or will shortly. A combination of
strong winds... low relative humidity... and warm temperatures can
contribute to extreme fire behavior.